createdAt,value
2023-03-05T00:01:15.336Z,64.94
2023-03-05T00:03:42.180Z,63.72
2023-03-05T00:06:09.592Z,63.86
2023-03-05T00:08:36.722Z,63.52
2023-03-05T00:11:06.944Z,62.78
2023-03-05T00:13:34.044Z,62.67
2023-03-05T00:16:04.601Z,62.74
2023-03-05T00:18:31.334Z,62.88
2023-03-05T00:20:58.210Z,63.59
2023-03-05T00:23:25.081Z,63.94
2023-03-05T00:25:51.942Z,64.07
2023-03-05T00:28:18.771Z,66.41
2023-03-05T00:30:45.482Z,64.92
2023-03-05T00:33:12.942Z,65.37
2023-03-05T00:35:44.562Z,65.58
2023-03-05T00:38:11.561Z,65.80
2023-03-05T00:40:39.852Z,64.67
2023-03-05T00:43:07.552Z,65.97
2023-03-05T00:45:34.215Z,65.34
2023-03-05T00:48:00.933Z,64.67
2023-03-05T00:50:27.986Z,65.10
2023-03-05T00:52:55.619Z,65.12
2023-03-05T00:55:22.387Z,64.01
2023-03-05T00:57:49.172Z,64.01
2023-03-05T01:00:16.842Z,64.38
2023-03-05T01:02:43.537Z,63.96
2023-03-05T01:05:12.898Z,64.10
2023-03-05T01:07:40.303Z,63.62
2023-03-05T01:10:08.427Z,64.10
2023-03-05T01:12:35.106Z,64.64
2023-03-05T01:15:02.235Z,64.48
2023-03-05T01:17:28.866Z,62.83
2023-03-05T01:19:55.680Z,63.21
2023-03-05T01:22:22.367Z,64.13
2023-03-05T01:24:49.078Z,64.49
2023-03-05T01:27:15.701Z,65.37
2023-03-05T01:29:42.337Z,65.50
2023-03-05T01:32:08.989Z,64.41
2023-03-05T01:34:37.820Z,64.27
2023-03-05T01:37:04.640Z,63.50
2023-03-05T01:39:31.368Z,63.98
2023-03-05T01:41:57.978Z,63.77
2023-03-05T01:44:28.034Z,64.39
2023-03-05T01:46:55.015Z,63.87
2023-03-05T01:49:27.906Z,63.02
2023-03-05T01:52:20.707Z,63.40
2023-03-05T01:54:52.956Z,63.48
2023-03-05T01:57:35.294Z,62.80
2023-03-05T02:00:12.805Z,62.20
2023-03-05T02:02:39.453Z,61.82
2023-03-05T02:05:20.674Z,61.61
2023-03-05T02:07:47.525Z,60.82
2023-03-05T02:10:21.526Z,62.14
2023-03-05T02:12:50.262Z,61.89
2023-03-05T02:15:18.058Z,61.35
2023-03-05T02:17:45.370Z,61.52
2023-03-05T02:20:27.509Z,61.22
2023-03-05T02:22:54.579Z,61.06
2023-03-05T02:25:24.652Z,61.18
2023-03-05T02:28:03.858Z,61.01
2023-03-05T02:30:31.456Z,60.65
2023-03-05T02:32:58.780Z,59.72
2023-03-05T02:35:25.915Z,59.88
2023-03-05T02:37:52.604Z,60.08
2023-03-05T02:40:19.298Z,59.92
2023-03-05T02:42:46.736Z,61.36
2023-03-05T02:45:13.905Z,60.98
2023-03-05T02:47:41.055Z,62.04
2023-03-05T02:50:10.380Z,61.53
2023-03-05T02:52:37.592Z,60.56
2023-03-05T02:55:05.054Z,60.22
2023-03-05T02:57:31.698Z,59.93
2023-03-05T02:59:58.349Z,61.01
2023-03-05T03:02:25.087Z,60.57
2023-03-05T03:04:51.703Z,61.24
2023-03-05T03:07:18.487Z,62.19
2023-03-05T03:09:45.113Z,62.11
2023-03-05T03:12:12.227Z,63.46
2023-03-05T03:14:41.311Z,64.49
2023-03-05T03:17:16.702Z,64.50
2023-03-05T03:19:44.598Z,64.21
2023-03-05T03:22:12.985Z,63.89
2023-03-05T03:24:43.096Z,65.13
2023-03-05T03:27:09.917Z,63.93
2023-03-05T03:29:36.916Z,63.86
2023-03-05T03:32:04.841Z,64.33
2023-03-05T03:34:31.561Z,64.22
2023-03-05T03:36:58.356Z,63.69
2023-03-05T03:39:25.516Z,64.53
2023-03-05T03:41:53.647Z,64.67
2023-03-05T03:44:21.507Z,63.18
2023-03-05T03:46:49.651Z,63.56
2023-03-05T03:49:22.380Z,63.20
2023-03-05T03:51:50.255Z,62.67
2023-03-05T03:54:20.689Z,60.99
2023-03-05T03:56:47.965Z,61.68
2023-03-05T03:59:14.910Z,62.08
2023-03-05T04:01:41.782Z,62.56
2023-03-05T04:04:08.958Z,63.09
2023-03-05T04:06:35.734Z,65.20
2023-03-05T04:09:02.346Z,65.40
2023-03-05T04:11:28.966Z,64.94
2023-03-05T04:13:55.721Z,64.15
2023-03-05T04:16:22.458Z,62.72
2023-03-05T04:18:49.169Z,63.30
2023-03-05T04:21:15.963Z,63.95
2023-03-05T04:23:42.650Z,63.80
2023-03-05T04:26:09.365Z,63.20
2023-03-05T04:28:36.275Z,62.70
2023-03-05T04:31:05.247Z,62.05
2023-03-05T04:33:32.431Z,61.62
2023-03-05T04:35:59.202Z,60.58
2023-03-05T04:38:25.862Z,60.18
2023-03-05T04:40:52.432Z,60.93
2023-03-05T04:43:24.093Z,61.38
2023-03-05T04:46:00.403Z,61.20
2023-03-05T04:48:27.167Z,61.42
2023-03-05T04:50:53.906Z,62.05
2023-03-05T04:53:20.599Z,60.21
2023-03-05T04:55:52.679Z,60.56
2023-03-05T04:58:19.310Z,61.11
2023-03-05T05:00:46.238Z,60.95
2023-03-05T05:03:13.025Z,61.28
2023-03-05T05:05:39.652Z,61.74
2023-03-05T05:08:06.565Z,61.39
2023-03-05T05:10:33.600Z,60.53
2023-03-05T05:13:00.185Z,60.83
2023-03-05T05:15:26.818Z,60.42
2023-03-05T05:17:53.641Z,60.99
2023-03-05T05:20:20.415Z,60.81
2023-03-05T05:22:47.119Z,59.82
2023-03-05T05:25:13.827Z,59.52
2023-03-05T05:27:40.792Z,60.79
2023-03-05T05:30:08.220Z,58.56
2023-03-05T05:32:35.003Z,60.54
2023-03-05T05:35:02.300Z,60.56
2023-03-05T05:37:29.666Z,59.93
2023-03-05T05:39:56.423Z,60.95
2023-03-05T05:42:24.750Z,60.66
2023-03-05T05:44:51.395Z,59.37
2023-03-05T05:47:18.460Z,59.06
2023-03-05T05:49:45.331Z,59.22
2023-03-05T05:52:13.519Z,57.80
2023-03-05T05:54:40.434Z,58.33
2023-03-05T05:57:07.512Z,57.92
2023-03-05T05:59:34.146Z,58.96
2023-03-05T06:02:00.897Z,58.89
2023-03-05T06:04:27.622Z,57.11
2023-03-05T06:06:54.181Z,56.15
2023-03-05T06:09:21.186Z,57.45
2023-03-05T06:11:48.070Z,56.96
2023-03-05T06:14:17.536Z,56.15
2023-03-05T06:16:44.369Z,57.71
2023-03-05T06:19:15.797Z,56.48
2023-03-05T06:21:43.941Z,56.26
2023-03-05T06:24:10.957Z,55.02
2023-03-05T06:26:37.713Z,55.15
2023-03-05T06:29:04.528Z,55.28
2023-03-05T06:31:31.357Z,54.11
2023-03-05T06:34:03.239Z,52.67
2023-03-05T06:36:30.386Z,53.89
2023-03-05T06:38:57.505Z,54.45
2023-03-05T06:41:28.400Z,53.35
2023-03-05T06:43:57.418Z,53.24
2023-03-05T06:46:25.094Z,53.03
2023-03-05T06:48:52.601Z,53.51
2023-03-05T06:51:22.639Z,53.30
2023-03-05T06:53:49.740Z,53.66
2023-03-05T06:56:17.071Z,53.23
2023-03-05T06:58:45.969Z,52.90
2023-03-05T07:01:13.385Z,52.18
2023-03-05T07:03:41.033Z,52.28
2023-03-05T07:06:09.995Z,52.39
2023-03-05T07:08:37.618Z,52.19
2023-03-05T07:11:04.508Z,52.15
2023-03-05T07:13:31.071Z,52.28
2023-03-05T07:15:57.849Z,51.58
2023-03-05T07:18:24.467Z,52.23
2023-03-05T07:20:51.909Z,50.90
2023-03-05T07:23:18.531Z,50.53
2023-03-05T07:25:45.271Z,52.41
2023-03-05T07:28:11.929Z,51.85
2023-03-05T07:30:38.601Z,51.05
2023-03-05T07:33:05.255Z,51.60
2023-03-05T07:35:32.005Z,52.09
2023-03-05T07:37:58.640Z,54.12
2023-03-05T07:40:25.279Z,54.52
2023-03-05T07:42:52.384Z,53.39
2023-03-05T07:45:19.088Z,52.81
2023-03-05T07:47:45.689Z,52.36
2023-03-05T07:50:12.448Z,51.67
2023-03-05T07:52:39.018Z,53.07
2023-03-05T07:55:06.664Z,53.18
2023-03-05T07:57:35.549Z,53.57
2023-03-05T08:00:02.371Z,53.79
2023-03-05T08:02:29.775Z,52.58
2023-03-05T08:04:56.488Z,53.07
2023-03-05T08:07:23.396Z,52.92
2023-03-05T08:09:50.032Z,53.47
2023-03-05T08:12:16.662Z,54.86
2023-03-05T08:14:43.888Z,55.25
2023-03-05T08:17:10.478Z,54.10
2023-03-05T08:19:37.082Z,53.64
2023-03-05T08:22:03.721Z,54.37
2023-03-05T08:24:30.559Z,54.67
2023-03-05T08:26:58.348Z,53.88
2023-03-05T08:29:27.610Z,53.10
2023-03-05T08:31:54.557Z,52.58
2023-03-05T08:34:22.075Z,52.89
2023-03-05T08:36:49.223Z,53.12
2023-03-05T08:39:16.428Z,53.16
2023-03-05T08:41:43.072Z,51.71
2023-03-05T08:44:09.945Z,52.04
2023-03-05T08:46:40.210Z,50.91
2023-03-05T08:49:07.814Z,51.32
2023-03-05T08:51:35.891Z,51.09
2023-03-05T08:54:07.085Z,50.43
2023-03-05T08:56:35.444Z,49.95
2023-03-05T08:59:03.545Z,49.89
2023-03-05T09:01:32.013Z,49.30
2023-03-05T09:04:00.061Z,50.01
2023-03-05T09:06:27.584Z,49.28
2023-03-05T09:08:54.457Z,48.94
2023-03-05T09:11:21.887Z,48.82
2023-03-05T09:13:48.466Z,47.73
2023-03-05T09:16:17.930Z,48.18
2023-03-05T09:18:45.039Z,47.60
2023-03-05T09:21:14.080Z,47.08
2023-03-05T09:23:41.580Z,46.17
2023-03-05T09:26:10.014Z,46.68
2023-03-05T09:28:36.846Z,45.67
2023-03-05T09:31:05.316Z,46.03
2023-03-05T09:33:33.160Z,45.15
2023-03-05T09:36:00.954Z,45.98
2023-03-05T09:38:28.069Z,46.34
2023-03-05T09:41:16.654Z,45.82
2023-03-05T09:44:02.014Z,46.34
2023-03-05T09:46:39.125Z,46.36
2023-03-05T09:49:14.600Z,45.81
2023-03-05T09:51:43.074Z,45.95
2023-03-05T09:54:20.244Z,45.67
2023-03-05T09:56:59.198Z,44.52
2023-03-05T09:59:28.924Z,45.28
2023-03-05T10:02:11.620Z,44.31
2023-03-05T10:04:47.914Z,44.46
2023-03-05T10:07:27.528Z,43.31
2023-03-05T10:10:01.301Z,43.52
2023-03-05T10:12:39.104Z,43.69
2023-03-05T10:15:12.468Z,43.83
2023-03-05T10:18:34.861Z,43.12
2023-03-05T10:21:08.001Z,42.58
2023-03-05T10:23:34.590Z,41.56
2023-03-05T10:26:08.564Z,42.93
2023-03-05T10:28:56.294Z,42.96
2023-03-05T10:31:38.447Z,40.73
2023-03-05T10:34:35.645Z,40.72
2023-03-05T10:37:27.742Z,41.85
2023-03-05T10:40:13.077Z,42.45
2023-03-05T10:42:51.908Z,42.71
2023-03-05T10:45:23.132Z,42.20
2023-03-05T10:47:55.583Z,41.62
2023-03-05T10:50:26.787Z,42.56
2023-03-05T10:53:05.745Z,42.73
2023-03-05T10:55:32.529Z,42.15
2023-03-05T10:57:59.215Z,41.92
2023-03-05T11:00:32.353Z,41.36
2023-03-05T11:03:00.593Z,41.82
2023-03-05T11:05:42.109Z,41.12
2023-03-05T11:08:23.271Z,41.78
2023-03-05T11:11:14.982Z,42.12
2023-03-05T11:13:52.203Z,42.11
2023-03-05T11:16:26.975Z,41.65
2023-03-05T11:19:18.816Z,41.14
2023-03-05T11:21:47.923Z,42.50
2023-03-05T11:24:16.344Z,42.04
2023-03-05T11:26:52.421Z,41.67
2023-03-05T11:29:27.910Z,42.31
2023-03-05T11:31:54.993Z,43.78
2023-03-05T11:34:31.394Z,42.75
2023-03-05T11:36:57.979Z,43.15
2023-03-05T11:39:26.147Z,43.33
2023-03-05T11:41:56.127Z,43.39
2023-03-05T11:44:27.112Z,43.05
2023-03-05T11:47:02.483Z,42.27
2023-03-05T11:49:32.940Z,42.33
2023-03-05T11:52:03.497Z,43.34
2023-03-05T11:54:39.217Z,43.23
2023-03-05T11:57:06.454Z,42.86
2023-03-05T11:59:40.620Z,43.69
2023-03-05T12:02:21.022Z,43.25
2023-03-05T12:04:48.940Z,44.13
2023-03-05T12:07:22.738Z,43.05
2023-03-05T12:09:52.483Z,43.05
2023-03-05T12:12:37.585Z,43.44
2023-03-05T12:15:29.224Z,41.78
2023-03-05T12:18:13.783Z,42.56
2023-03-05T12:21:07.325Z,42.98
2023-03-05T12:23:54.017Z,42.64
2023-03-05T12:27:06.156Z,42.80
2023-03-05T12:29:41.426Z,42.27
2023-03-05T12:32:25.481Z,42.69
2023-03-05T12:35:06.297Z,43.03
2023-03-05T12:37:32.845Z,43.13
2023-03-05T12:40:08.665Z,43.07
2023-03-05T12:42:35.516Z,42.24
2023-03-05T12:45:16.988Z,41.34
2023-03-05T12:47:56.292Z,41.65
2023-03-05T12:50:28.936Z,41.91
2023-03-05T12:52:57.822Z,42.44
2023-03-05T12:55:33.558Z,42.78
2023-03-05T12:58:04.885Z,43.26
2023-03-05T13:00:43.287Z,42.25
2023-03-05T13:03:20.059Z,42.35
2023-03-05T13:06:06.757Z,42.38
2023-03-05T13:08:36.197Z,42.69
2023-03-05T13:11:13.565Z,41.98
2023-03-05T13:13:52.734Z,41.89
2023-03-05T13:16:39.330Z,42.04
2023-03-05T13:19:16.976Z,41.57
2023-03-05T13:21:43.945Z,41.02
2023-03-05T13:24:18.804Z,41.32
2023-03-05T13:26:45.753Z,41.46
2023-03-05T13:29:18.779Z,40.75
2023-03-05T13:32:15.934Z,41.52
2023-03-05T13:34:48.103Z,41.90
2023-03-05T13:37:19.113Z,42.36
2023-03-05T13:40:02.247Z,41.47
2023-03-05T13:42:34.800Z,42.01
2023-03-05T13:45:02.589Z,41.79
2023-03-05T13:47:34.455Z,42.20
2023-03-05T13:50:07.560Z,40.96
2023-03-05T13:52:37.060Z,40.79
2023-03-05T13:55:16.983Z,41.16
2023-03-05T13:57:53.062Z,40.98
2023-03-05T14:00:37.120Z,41.33
2023-03-05T14:03:30.159Z,40.91
2023-03-05T14:05:56.916Z,42.02
2023-03-05T14:08:27.425Z,42.00
2023-03-05T14:10:57.304Z,41.21
2023-03-05T14:13:27.237Z,41.21
2023-03-05T14:16:10.525Z,41.23
2023-03-05T14:18:37.777Z,41.12
2023-03-05T14:21:11.672Z,42.15
2023-03-05T14:23:46.941Z,41.88
2023-03-05T14:26:19.313Z,42.68
2023-03-05T14:28:55.854Z,41.50
2023-03-05T14:31:24.498Z,42.19
2023-03-05T14:33:52.171Z,41.68
2023-03-05T14:36:24.684Z,41.50
2023-03-05T14:38:52.409Z,41.09
2023-03-05T14:41:33.328Z,42.03
2023-03-05T14:44:00.111Z,41.13
2023-03-05T14:46:27.240Z,40.44
2023-03-05T14:48:54.424Z,40.40
2023-03-05T14:51:22.267Z,40.40
2023-03-05T14:53:51.133Z,41.04
2023-03-05T14:56:26.770Z,42.02
2023-03-05T14:58:53.876Z,41.29
2023-03-05T15:01:20.773Z,41.33
2023-03-05T15:03:47.402Z,41.58
2023-03-05T15:06:28.614Z,41.11
2023-03-05T15:08:55.190Z,40.69
2023-03-05T15:11:22.768Z,40.44
2023-03-05T15:13:52.382Z,40.52
2023-03-05T15:16:19.811Z,40.10
2023-03-05T15:18:46.523Z,39.04
2023-03-05T15:21:13.222Z,39.66
2023-03-05T15:23:39.827Z,40.01
2023-03-05T15:26:09.472Z,40.01
2023-03-05T15:28:38.750Z,41.09
2023-03-05T15:31:06.630Z,40.09
2023-03-05T15:33:33.938Z,40.30
2023-03-05T15:36:01.074Z,41.82
2023-03-05T15:38:27.737Z,41.15
2023-03-05T15:40:54.417Z,40.76
2023-03-05T15:43:21.213Z,41.61
2023-03-05T15:45:48.225Z,41.08
2023-03-05T15:48:15.062Z,40.69
2023-03-05T15:50:43.702Z,41.34
2023-03-05T15:53:13.465Z,41.16
2023-03-05T15:55:40.979Z,40.69
2023-03-05T15:58:08.042Z,41.57
2023-03-05T16:00:37.048Z,41.26
2023-03-05T16:03:04.324Z,42.05
2023-03-05T16:05:31.293Z,42.97
2023-03-05T16:07:59.952Z,42.54
2023-03-05T16:10:29.446Z,43.21
2023-03-05T16:13:09.803Z,43.51
2023-03-05T16:15:40.188Z,43.54
2023-03-05T16:18:09.407Z,43.09
2023-03-05T16:20:36.396Z,43.35
2023-03-05T16:23:04.568Z,44.07
2023-03-05T16:25:31.467Z,43.89
2023-03-05T16:27:58.094Z,44.53
2023-03-05T16:30:24.812Z,44.31
2023-03-05T16:32:53.640Z,45.02
2023-03-05T16:35:20.708Z,45.80
2023-03-05T16:37:47.759Z,45.85
2023-03-05T16:40:14.833Z,45.99
2023-03-05T16:42:42.578Z,46.54
2023-03-05T16:45:10.891Z,47.34
2023-03-05T16:47:38.109Z,47.02
2023-03-05T16:50:05.672Z,46.44
2023-03-05T16:52:32.366Z,46.71
2023-03-05T16:54:59.000Z,46.26
2023-03-05T16:57:25.897Z,46.22
2023-03-05T16:59:54.196Z,46.13
2023-03-05T17:02:21.093Z,47.36
2023-03-05T17:04:48.973Z,47.06
2023-03-05T17:07:15.726Z,46.63
2023-03-05T17:09:42.439Z,47.26
2023-03-05T17:12:09.110Z,48.28
2023-03-05T17:14:35.693Z,48.48
2023-03-05T17:17:02.454Z,48.43
2023-03-05T17:19:29.022Z,47.88
2023-03-05T17:21:55.646Z,48.56
2023-03-05T17:24:22.808Z,48.50
2023-03-05T17:26:49.945Z,48.31
2023-03-05T17:29:18.973Z,48.49
2023-03-05T17:31:46.794Z,48.69
2023-03-05T17:34:13.585Z,47.87
2023-03-05T17:36:40.260Z,47.45
2023-03-05T17:39:06.952Z,48.92
2023-03-05T17:41:33.545Z,48.38
2023-03-05T17:44:00.222Z,47.11
2023-03-05T17:46:26.825Z,47.33
2023-03-05T17:48:53.460Z,46.78
2023-03-05T17:51:20.015Z,47.67
2023-03-05T17:53:47.500Z,47.31
2023-03-05T17:56:17.088Z,46.37
2023-03-05T17:58:43.821Z,47.26
2023-03-05T18:01:10.510Z,47.78
2023-03-05T18:03:37.645Z,46.89
2023-03-05T18:06:05.093Z,46.18
2023-03-05T18:08:32.082Z,45.91
2023-03-05T18:10:58.759Z,46.09
2023-03-05T18:13:25.374Z,46.40
2023-03-05T18:15:52.033Z,47.07
2023-03-05T18:18:18.722Z,47.52
2023-03-05T18:20:45.813Z,46.04
2023-03-05T18:23:13.016Z,46.56
2023-03-05T18:25:39.656Z,45.88
2023-03-05T18:28:11.750Z,46.72
2023-03-05T18:30:40.610Z,46.03
2023-03-05T18:33:09.055Z,46.99
2023-03-05T18:35:36.811Z,46.01
2023-03-05T18:38:03.440Z,45.79
2023-03-05T18:40:32.601Z,46.87
2023-03-05T18:43:01.141Z,46.51
2023-03-05T18:45:28.988Z,46.54
2023-03-05T18:47:56.762Z,46.36
2023-03-05T18:50:25.785Z,47.30
2023-03-05T18:52:52.816Z,47.33
2023-03-05T18:55:25.097Z,46.79
2023-03-05T18:57:52.021Z,47.16
2023-03-05T19:00:21.366Z,47.77
2023-03-05T19:02:48.378Z,47.12
2023-03-05T19:05:16.169Z,47.69
2023-03-05T19:07:43.060Z,48.47
2023-03-05T19:10:12.310Z,49.09
2023-03-05T19:13:00.056Z,49.10
2023-03-05T19:15:26.820Z,49.03
2023-03-05T19:17:54.875Z,48.54
2023-03-05T19:20:21.482Z,47.95
2023-03-05T19:22:50.843Z,46.89
2023-03-05T19:25:17.934Z,48.97
2023-03-05T19:27:44.540Z,49.09
2023-03-05T19:30:12.091Z,49.07
2023-03-05T19:32:38.803Z,48.69
2023-03-05T19:35:05.879Z,48.20
2023-03-05T19:37:32.703Z,48.20
2023-03-05T19:39:59.649Z,48.15
2023-03-05T19:42:26.265Z,48.27
2023-03-05T19:44:53.721Z,48.12
2023-03-05T19:47:20.625Z,49.19
2023-03-05T19:49:47.577Z,48.38
2023-03-05T19:52:14.232Z,48.99
2023-03-05T19:54:41.018Z,49.84
2023-03-05T19:57:07.711Z,48.93
2023-03-05T19:59:34.470Z,49.72
2023-03-05T20:02:01.192Z,49.20
2023-03-05T20:04:28.229Z,49.61
2023-03-05T20:06:54.811Z,49.76
2023-03-05T20:09:21.670Z,50.11
2023-03-05T20:11:48.568Z,49.87
2023-03-05T20:14:15.334Z,50.27
2023-03-05T20:16:43.478Z,50.79
2023-03-05T20:19:16.307Z,50.09
2023-03-05T20:21:44.010Z,49.47
2023-03-05T20:24:13.273Z,50.45
2023-03-05T20:26:41.276Z,50.70
2023-03-05T20:29:09.124Z,50.33
2023-03-05T20:31:37.374Z,49.79
2023-03-05T20:34:06.086Z,49.27
2023-03-05T20:36:34.636Z,49.83
2023-03-05T20:39:03.170Z,49.70
2023-03-05T20:41:31.385Z,49.57
2023-03-05T20:43:58.286Z,49.75
2023-03-05T20:46:28.380Z,50.95
2023-03-05T20:48:57.742Z,50.75
2023-03-05T20:51:27.920Z,49.25
2023-03-05T20:53:58.586Z,50.36
2023-03-05T20:56:27.981Z,49.60
2023-03-05T20:58:55.864Z,48.74
2023-03-05T21:01:22.714Z,50.46
2023-03-05T21:03:49.793Z,51.10
2023-03-05T21:06:16.585Z,50.47
2023-03-05T21:08:43.839Z,50.28
2023-03-05T21:11:11.353Z,49.41
2023-03-05T21:13:38.366Z,49.96
2023-03-05T21:16:10.814Z,50.50
2023-03-05T21:18:37.586Z,50.27
2023-03-05T21:21:04.404Z,50.31
2023-03-05T21:23:31.930Z,51.22
2023-03-05T21:25:58.855Z,51.20
2023-03-05T21:28:25.545Z,51.92
2023-03-05T21:30:54.456Z,52.05
2023-03-05T21:33:27.065Z,51.03
2023-03-05T21:35:54.768Z,50.35
2023-03-05T21:38:23.241Z,51.21
2023-03-05T21:40:50.820Z,51.12
2023-03-05T21:43:20.294Z,50.39
2023-03-05T21:46:00.068Z,50.94
2023-03-05T21:48:28.427Z,50.88
2023-03-05T21:50:55.460Z,51.71
2023-03-05T21:53:22.863Z,50.03
2023-03-05T21:56:02.587Z,51.14
2023-03-05T21:58:33.868Z,51.91
2023-03-05T22:01:01.043Z,51.83
2023-03-05T22:03:28.410Z,52.12
2023-03-05T22:05:55.857Z,52.10
2023-03-05T22:08:23.813Z,52.29
2023-03-05T22:10:50.681Z,53.03
2023-03-05T22:13:19.975Z,52.50
2023-03-05T22:15:56.606Z,53.08
2023-03-05T22:18:28.697Z,52.48
2023-03-05T22:20:57.828Z,51.90
2023-03-05T22:23:29.929Z,51.99
2023-03-05T22:25:58.429Z,52.78
2023-03-05T22:28:25.895Z,53.71
2023-03-05T22:30:52.742Z,53.31
2023-03-05T22:33:21.894Z,51.96
2023-03-05T22:35:49.470Z,53.11
2023-03-05T22:38:16.355Z,53.72
2023-03-05T22:40:45.684Z,53.35
2023-03-05T22:43:13.633Z,52.33
2023-03-05T22:45:40.859Z,52.28
2023-03-05T22:48:09.891Z,52.56
2023-03-05T22:50:41.618Z,52.78
2023-03-05T22:53:08.704Z,53.59
2023-03-05T22:55:39.502Z,52.15
2023-03-05T22:58:06.231Z,52.43
2023-03-05T23:00:33.018Z,52.99
2023-03-05T23:02:59.628Z,52.66
2023-03-05T23:05:26.291Z,51.66
2023-03-05T23:07:52.947Z,51.57
2023-03-05T23:10:23.476Z,51.85
2023-03-05T23:12:53.128Z,52.95
2023-03-05T23:15:26.564Z,52.84
2023-03-05T23:17:54.049Z,53.47
2023-03-05T23:20:23.081Z,54.17
2023-03-05T23:22:52.990Z,54.76
2023-03-05T23:25:20.776Z,55.17
2023-03-05T23:27:47.785Z,54.52
2023-03-05T23:30:31.569Z,55.02
2023-03-05T23:33:00.083Z,56.14
2023-03-05T23:35:36.182Z,56.19
2023-03-05T23:38:06.204Z,56.16
2023-03-05T23:40:35.591Z,56.07
2023-03-05T23:43:02.370Z,56.05
2023-03-05T23:45:29.746Z,56.69
2023-03-05T23:47:56.905Z,57.35
2023-03-05T23:50:30.354Z,57.53
2023-03-05T23:52:57.447Z,56.50
2023-03-05T23:55:30.382Z,57.27
2023-03-05T23:57:57.017Z,57.50
